createdAt,value
2023-01-22T00:00:00.267Z,35.30
2023-01-22T00:02:26.240Z,36.40
2023-01-22T00:04:52.516Z,36.53
2023-01-22T00:07:18.940Z,35.78
2023-01-22T00:09:45.003Z,34.65
2023-01-22T00:12:10.829Z,35.53
2023-01-22T00:14:36.741Z,35.78
2023-01-22T00:17:02.885Z,38.50
2023-01-22T00:19:29.184Z,35.53
2023-01-22T00:21:54.968Z,34.80
2023-01-22T00:24:21.619Z,31.70
2023-01-22T00:26:47.469Z,29.88
2023-01-22T00:29:13.587Z,31.77
2023-01-22T00:31:39.553Z,33.63
2023-01-22T00:34:05.608Z,30.48
2023-01-22T00:36:31.483Z,27.48
2023-01-22T00:38:57.495Z,29.85
2023-01-22T00:41:23.865Z,31.83
2023-01-22T00:43:52.686Z,31.27
2023-01-22T00:46:20.955Z,27.27
2023-01-22T00:48:48.914Z,25.52
2023-01-22T00:51:15.535Z,26.92
2023-01-22T00:53:43.178Z,27.75
2023-01-22T00:56:10.920Z,26.73
2023-01-22T00:58:36.817Z,26.83
2023-01-22T01:01:03.483Z,26.13
2023-01-22T01:03:30.959Z,27.75
2023-01-22T01:06:19.056Z,26.48
2023-01-22T01:08:46.439Z,26.48
2023-01-22T01:11:18.559Z,26.52
2023-01-22T01:13:44.522Z,24.90
2023-01-22T01:16:14.350Z,23.05
2023-01-22T01:18:40.716Z,25.98
2023-01-22T01:21:06.809Z,25.60
2023-01-22T01:23:33.486Z,25.88
2023-01-22T01:25:59.365Z,28.30
2023-01-22T01:28:25.906Z,22.75
2023-01-22T01:30:51.857Z,22.60
2023-01-22T01:33:17.776Z,26.15
2023-01-22T01:35:43.623Z,24.85
2023-01-22T01:38:09.508Z,23.85
2023-01-22T01:40:41.238Z,21.92
2023-01-22T01:43:16.328Z,25.27
2023-01-22T01:45:42.659Z,23.20
2023-01-22T01:48:29.331Z,21.50
2023-01-22T01:51:09.996Z,23.08
2023-01-22T01:53:36.955Z,21.88
2023-01-22T01:56:06.818Z,23.88
2023-01-22T01:58:35.341Z,24.13
2023-01-22T02:01:07.977Z,21.80
2023-01-22T02:03:33.911Z,23.77
2023-01-22T02:05:59.837Z,20.88
2023-01-22T02:08:25.670Z,20.13
2023-01-22T02:10:52.712Z,21.42
2023-01-22T02:13:26.926Z,21.73
2023-01-22T02:15:53.343Z,18.02
2023-01-22T02:18:19.212Z,20.25
2023-01-22T02:20:58.944Z,21.38
2023-01-22T02:23:25.505Z,21.40
2023-01-22T02:25:51.865Z,20.17
2023-01-22T02:28:18.615Z,19.70
2023-01-22T02:30:45.236Z,17.77
2023-01-22T02:33:11.379Z,19.45
2023-01-22T02:35:37.417Z,16.73
2023-01-22T02:38:03.912Z,17.08
2023-01-22T02:40:29.804Z,16.92
2023-01-22T02:42:56.524Z,17.67
2023-01-22T02:45:23.261Z,20.90
2023-01-22T02:47:49.656Z,19.05
2023-01-22T02:50:16.511Z,18.65
2023-01-22T02:52:42.523Z,17.92
2023-01-22T02:55:09.120Z,17.92
2023-01-22T02:57:35.038Z,16.00
2023-01-22T03:00:01.534Z,17.00
2023-01-22T03:02:27.442Z,19.02
2023-01-22T03:05:02.445Z,17.25
2023-01-22T03:07:41.549Z,13.68
2023-01-22T03:10:18.416Z,17.08
2023-01-22T03:13:04.582Z,17.58
2023-01-22T03:15:49.134Z,16.85
2023-01-22T03:18:34.433Z,18.52
2023-01-22T03:21:13.526Z,19.42
2023-01-22T03:23:39.685Z,19.35
2023-01-22T03:26:06.074Z,19.27
2023-01-22T03:28:31.933Z,17.98
2023-01-22T03:30:57.809Z,16.77
2023-01-22T03:33:23.833Z,17.42
2023-01-22T03:35:49.674Z,22.10
2023-01-22T03:38:15.697Z,18.23
2023-01-22T03:40:41.890Z,18.83
2023-01-22T03:43:07.770Z,19.48
2023-01-22T03:45:34.286Z,21.33
2023-01-22T03:48:01.565Z,23.02
2023-01-22T03:50:27.878Z,21.67
2023-01-22T03:52:54.698Z,20.33
2023-01-22T03:55:20.500Z,21.58
2023-01-22T03:57:46.383Z,22.52
2023-01-22T04:00:13.118Z,22.92
2023-01-22T04:02:39.670Z,23.13
2023-01-22T04:05:06.068Z,19.73
2023-01-22T04:07:31.848Z,22.98
2023-01-22T04:09:57.695Z,19.10
2023-01-22T04:12:23.524Z,20.50
2023-01-22T04:14:49.272Z,21.52
2023-01-22T04:17:15.187Z,22.05
2023-01-22T04:19:41.108Z,20.65
2023-01-22T04:22:06.908Z,20.70
2023-01-22T04:24:32.678Z,21.55
2023-01-22T04:26:58.514Z,23.08
2023-01-22T04:29:24.371Z,25.10
2023-01-22T04:31:50.218Z,20.58
2023-01-22T04:34:16.055Z,21.60
2023-01-22T04:36:41.972Z,20.38
2023-01-22T04:39:07.748Z,18.35
2023-01-22T04:41:33.623Z,17.33
2023-01-22T04:43:59.383Z,17.35
2023-01-22T04:46:25.314Z,17.95
2023-01-22T04:48:51.196Z,18.58
2023-01-22T04:51:17.684Z,19.45
2023-01-22T04:53:43.476Z,17.95
2023-01-22T04:56:09.313Z,16.52
2023-01-22T04:58:35.273Z,14.45
2023-01-22T05:01:01.138Z,16.25
2023-01-22T05:03:26.975Z,15.60
2023-01-22T05:05:52.855Z,15.95
2023-01-22T05:08:18.713Z,16.00
2023-01-22T05:10:44.527Z,15.20
2023-01-22T05:13:10.365Z,14.50
2023-01-22T05:15:36.225Z,15.85
2023-01-22T05:18:02.072Z,14.30
2023-01-22T05:20:27.895Z,14.32
2023-01-22T05:22:53.724Z,15.65
2023-01-22T05:25:19.597Z,14.88
2023-01-22T05:27:45.421Z,15.05
2023-01-22T05:30:12.395Z,14.48
2023-01-22T05:32:38.812Z,13.32
2023-01-22T05:35:05.234Z,13.32
2023-01-22T05:37:31.962Z,16.42
2023-01-22T05:39:57.797Z,13.45
2023-01-22T05:42:24.622Z,13.55
2023-01-22T05:44:50.426Z,13.10
2023-01-22T05:47:16.340Z,12.10
2023-01-22T05:49:42.286Z,11.68
2023-01-22T05:52:11.093Z,13.45
2023-01-22T05:54:40.010Z,13.75
2023-01-22T05:57:06.481Z,12.27
2023-01-22T05:59:32.364Z,13.57
2023-01-22T06:01:58.118Z,12.40
2023-01-22T06:04:24.041Z,13.10
2023-01-22T06:06:49.885Z,12.60
2023-01-22T06:09:15.704Z,11.65
2023-01-22T06:11:41.493Z,12.65
2023-01-22T06:14:07.277Z,12.10
2023-01-22T06:16:33.142Z,13.18
2023-01-22T06:18:58.932Z,12.90
2023-01-22T06:21:24.713Z,12.50
2023-01-22T06:23:50.459Z,12.30
2023-01-22T06:26:16.241Z,13.02
2023-01-22T06:28:42.090Z,13.98
2023-01-22T06:31:08.072Z,12.15
2023-01-22T06:33:34.573Z,12.95
2023-01-22T06:36:01.048Z,11.45
2023-01-22T06:38:26.858Z,12.40
2023-01-22T06:40:54.725Z,11.32
2023-01-22T06:43:20.842Z,12.32
2023-01-22T06:45:46.648Z,12.73
2023-01-22T06:48:12.534Z,11.18
2023-01-22T06:50:38.363Z,11.23
2023-01-22T06:53:04.291Z,12.55
2023-01-22T06:55:30.084Z,11.52
2023-01-22T06:57:56.726Z,10.18
2023-01-22T07:00:23.049Z,11.85
2023-01-22T07:02:49.940Z,11.38
2023-01-22T07:05:16.221Z,11.15
2023-01-22T07:07:42.460Z,12.27
2023-01-22T07:10:09.630Z,10.50
2023-01-22T07:12:35.637Z,11.90
2023-01-22T07:15:01.427Z,10.85
2023-01-22T07:17:27.414Z,11.60
2023-01-22T07:19:53.289Z,11.10
2023-01-22T07:22:19.111Z,11.50
2023-01-22T07:24:44.983Z,11.20
2023-01-22T07:27:10.835Z,11.05
2023-01-22T07:29:37.018Z,12.88
2023-01-22T07:32:02.879Z,11.98
2023-01-22T07:34:28.760Z,11.85
2023-01-22T07:36:54.637Z,12.43
2023-01-22T07:39:20.474Z,11.02
2023-01-22T07:41:46.451Z,10.15
2023-01-22T07:44:12.701Z,18.60
2023-01-22T07:46:38.647Z,11.35
2023-01-22T07:49:05.644Z,10.65
2023-01-22T07:51:31.898Z,11.23
2023-01-22T07:53:57.784Z,10.23
2023-01-22T07:56:23.686Z,10.23
2023-01-22T07:58:49.542Z,11.25
2023-01-22T08:01:16.409Z,9.75
2023-01-22T08:03:42.511Z,9.48
2023-01-22T08:06:09.833Z,11.05
2023-01-22T08:08:35.997Z,10.05
2023-01-22T08:11:02.183Z,9.27
2023-01-22T08:13:27.995Z,9.80
2023-01-22T08:15:56.940Z,8.77
2023-01-22T08:18:23.095Z,8.57
2023-01-22T08:20:49.140Z,10.00
2023-01-22T08:23:15.011Z,9.30
2023-01-22T08:25:40.838Z,8.23
2023-01-22T08:28:06.791Z,9.15
2023-01-22T08:30:45.199Z,7.63
2023-01-22T08:33:11.868Z,9.02
2023-01-22T08:35:39.082Z,18.27
2023-01-22T08:38:04.966Z,10.98
2023-01-22T08:40:30.824Z,14.20
2023-01-22T08:42:56.708Z,11.13
2023-01-22T08:45:22.828Z,10.77
2023-01-22T08:47:50.704Z,10.55
2023-01-22T08:50:17.505Z,10.05
2023-01-22T08:52:43.538Z,10.50
2023-01-22T08:55:09.475Z,8.82
2023-01-22T08:57:36.217Z,10.40
2023-01-22T09:00:04.175Z,10.65
2023-01-22T09:02:30.195Z,9.50
2023-01-22T09:04:56.035Z,7.43
2023-01-22T09:07:22.005Z,8.20
2023-01-22T09:09:47.953Z,10.13
2023-01-22T09:12:14.023Z,7.35
2023-01-22T09:14:39.975Z,9.27
2023-01-22T09:17:05.882Z,7.57
2023-01-22T09:19:31.857Z,8.02
2023-01-22T09:21:57.723Z,7.75
2023-01-22T09:24:23.643Z,8.63
2023-01-22T09:26:49.804Z,6.53
2023-01-22T09:29:15.862Z,6.72
2023-01-22T09:31:41.746Z,6.28
2023-01-22T09:34:07.995Z,7.78
2023-01-22T09:36:33.937Z,6.60
2023-01-22T09:38:59.878Z,7.65
2023-01-22T09:41:31.199Z,6.90
2023-01-22T09:44:03.168Z,6.90
2023-01-22T09:46:49.328Z,8.10
2023-01-22T09:49:18.187Z,7.63
2023-01-22T09:51:49.394Z,6.60
2023-01-22T09:54:16.669Z,7.75
2023-01-22T09:56:46.359Z,9.57
2023-01-22T09:59:25.713Z,6.95
2023-01-22T10:01:57.961Z,6.35
2023-01-22T10:04:34.551Z,7.32
2023-01-22T10:07:03.969Z,6.45
2023-01-22T10:09:32.148Z,6.20
2023-01-22T10:11:59.497Z,6.47
2023-01-22T10:14:28.847Z,6.13
2023-01-22T10:17:00.295Z,6.93
2023-01-22T10:19:40.763Z,7.22
2023-01-22T10:22:14.890Z,7.03
2023-01-22T10:24:40.827Z,9.27
2023-01-22T10:27:15.568Z,8.90
2023-01-22T10:30:06.249Z,8.52
2023-01-22T10:32:32.437Z,8.48
2023-01-22T10:35:10.547Z,7.95
2023-01-22T10:37:59.133Z,10.50
2023-01-22T10:40:33.102Z,9.30
2023-01-22T10:43:12.232Z,9.63
2023-01-22T10:45:49.304Z,8.27
2023-01-22T10:48:16.545Z,9.15
2023-01-22T10:50:44.428Z,9.52
2023-01-22T10:53:35.061Z,10.05
2023-01-22T10:56:03.298Z,8.73
2023-01-22T10:58:33.479Z,8.80
2023-01-22T11:01:06.057Z,7.97
2023-01-22T11:03:38.575Z,9.05
2023-01-22T11:06:27.087Z,8.82
2023-01-22T11:08:59.428Z,10.45
2023-01-22T11:11:32.422Z,10.68
2023-01-22T11:14:09.832Z,10.57
2023-01-22T11:16:38.118Z,10.10
2023-01-22T11:19:13.520Z,9.65
2023-01-22T11:21:46.319Z,10.88
2023-01-22T11:24:30.761Z,11.05
2023-01-22T11:27:09.380Z,11.38
2023-01-22T11:29:58.057Z,11.45
2023-01-22T11:32:36.131Z,13.35
2023-01-22T11:35:01.976Z,15.65
2023-01-22T11:38:04.928Z,15.25
2023-01-22T11:40:34.061Z,21.30
2023-01-22T11:43:54.785Z,23.33
2023-01-22T11:46:46.119Z,17.15
2023-01-22T11:49:29.336Z,15.93
2023-01-22T11:52:26.069Z,13.05
2023-01-22T11:55:20.020Z,14.63
2023-01-22T11:58:06.132Z,12.00
2023-01-22T12:01:04.187Z,11.60
2023-01-22T12:03:38.974Z,14.48
2023-01-22T12:06:20.761Z,12.90
2023-01-22T12:09:16.492Z,22.38
2023-01-22T12:11:48.471Z,25.52
2023-01-22T12:14:32.387Z,18.67
2023-01-22T12:17:40.592Z,15.90
2023-01-22T12:20:25.060Z,16.25
2023-01-22T12:23:13.061Z,16.10
2023-01-22T12:25:54.348Z,16.60
2023-01-22T12:28:39.364Z,13.98
2023-01-22T12:31:14.552Z,15.80
2023-01-22T12:33:41.564Z,15.93
2023-01-22T12:36:13.718Z,15.45
2023-01-22T12:38:50.520Z,15.60
2023-01-22T12:41:53.656Z,16.58
2023-01-22T12:44:45.533Z,19.10
2023-01-22T12:47:23.960Z,18.13
2023-01-22T12:49:51.802Z,16.67
2023-01-22T12:52:34.339Z,19.33
2023-01-22T12:55:01.802Z,18.40
2023-01-22T12:57:41.125Z,16.25
2023-01-22T13:00:34.022Z,18.85
2023-01-22T13:03:30.640Z,23.00
2023-01-22T13:05:58.882Z,31.05
2023-01-22T13:08:44.436Z,21.65
2023-01-22T13:11:26.055Z,18.65
2023-01-22T13:14:03.298Z,19.48
2023-01-22T13:16:38.270Z,32.30
2023-01-22T13:19:25.347Z,28.00
2023-01-22T13:21:52.094Z,27.70
2023-01-22T13:24:20.608Z,28.60
2023-01-22T13:26:59.614Z,30.15
2023-01-22T13:29:36.818Z,24.50
2023-01-22T13:32:05.743Z,27.77
2023-01-22T13:34:31.860Z,24.40
2023-01-22T13:36:59.468Z,42.67
2023-01-22T13:39:31.509Z,31.88
2023-01-22T13:41:59.954Z,30.65
2023-01-22T13:44:55.929Z,38.47
2023-01-22T13:47:30.001Z,21.77
2023-01-22T13:49:56.305Z,33.97
2023-01-22T13:52:22.602Z,29.90
2023-01-22T13:54:58.009Z,83.68
2023-01-22T13:57:23.822Z,25.30
2023-01-22T14:00:00.650Z,38.85
2023-01-22T14:02:33.927Z,39.25
2023-01-22T14:05:00.603Z,45.22
2023-01-22T14:07:31.724Z,38.92
2023-01-22T14:10:11.579Z,24.83
2023-01-22T14:12:37.592Z,31.55
2023-01-22T14:15:16.914Z,35.95
2023-01-22T14:17:42.976Z,38.03
2023-01-22T14:20:09.826Z,31.92
2023-01-22T14:22:35.670Z,24.42
2023-01-22T14:25:01.674Z,35.80
2023-01-22T14:27:48.071Z,47.60
2023-01-22T14:30:17.184Z,45.00
2023-01-22T14:32:44.633Z,64.00
2023-01-22T14:35:19.947Z,46.38
2023-01-22T14:37:46.653Z,27.50
2023-01-22T14:40:14.630Z,33.15
2023-01-22T14:42:41.047Z,26.55
2023-01-22T14:45:07.960Z,33.03
2023-01-22T14:47:34.241Z,27.30
2023-01-22T14:50:01.053Z,26.58
2023-01-22T14:52:27.170Z,29.92
2023-01-22T14:54:55.344Z,29.95
2023-01-22T14:57:22.430Z,25.33
2023-01-22T14:59:48.268Z,34.42
2023-01-22T15:02:14.156Z,22.00
2023-01-22T15:04:41.111Z,35.88
2023-01-22T15:07:07.361Z,35.17
2023-01-22T15:09:33.567Z,49.17
2023-01-22T15:11:59.585Z,31.60
2023-01-22T15:14:25.577Z,57.08
2023-01-22T15:16:51.596Z,28.05
2023-01-22T15:19:18.613Z,59.28
2023-01-22T15:21:44.953Z,60.67
2023-01-22T15:24:10.821Z,54.20
2023-01-22T15:26:37.629Z,40.85
2023-01-22T15:29:06.207Z,110.93
2023-01-22T15:31:32.734Z,51.95
2023-01-22T15:34:01.441Z,63.70
2023-01-22T15:36:32.447Z,40.60
2023-01-22T15:38:58.619Z,59.80
2023-01-22T15:41:32.788Z,68.20
2023-01-22T15:44:00.830Z,64.00
2023-01-22T15:46:31.874Z,71.53
2023-01-22T15:48:59.168Z,69.57
2023-01-22T15:51:26.569Z,57.33
2023-01-22T15:53:55.102Z,60.55
2023-01-22T15:56:23.836Z,69.28
2023-01-22T15:58:50.663Z,65.50
2023-01-22T16:01:18.287Z,72.13
2023-01-22T16:03:45.487Z,100.28
2023-01-22T16:06:26.222Z,44.35
2023-01-22T16:08:53.822Z,34.70
2023-01-22T16:11:21.149Z,31.75
2023-01-22T16:13:47.427Z,116.65
2023-01-22T16:16:25.671Z,63.47
2023-01-22T16:18:52.559Z,56.13
2023-01-22T16:21:20.002Z,58.70
2023-01-22T16:23:47.230Z,63.97
2023-01-22T16:26:16.398Z,70.65
2023-01-22T16:28:43.665Z,64.68
2023-01-22T16:31:12.525Z,100.57
2023-01-22T16:33:42.160Z,62.85
2023-01-22T16:36:11.630Z,81.97
2023-01-22T16:38:38.903Z,39.80
2023-01-22T16:41:25.314Z,179.18
2023-01-22T16:43:53.355Z,47.92
2023-01-22T16:46:22.508Z,79.43
2023-01-22T16:48:48.670Z,176.00
2023-01-22T16:51:21.598Z,76.18
2023-01-22T16:53:48.612Z,84.82
2023-01-22T16:56:15.111Z,63.80
2023-01-22T16:58:41.310Z,61.25
2023-01-22T17:01:10.932Z,56.08
2023-01-22T17:03:37.740Z,77.65
2023-01-22T17:06:06.779Z,79.18
2023-01-22T17:08:35.844Z,40.55
2023-01-22T17:11:01.904Z,62.78
2023-01-22T17:13:29.261Z,78.30
2023-01-22T17:15:55.317Z,70.30
2023-01-22T17:18:21.386Z,95.55
2023-01-22T17:21:01.360Z,64.95
2023-01-22T17:23:27.749Z,67.40
2023-01-22T17:25:54.160Z,90.95
2023-01-22T17:28:21.375Z,59.78
2023-01-22T17:30:47.839Z,35.13
2023-01-22T17:33:14.142Z,40.42
2023-01-22T17:35:41.335Z,39.70
2023-01-22T17:38:08.104Z,36.72
2023-01-22T17:40:36.227Z,51.83
2023-01-22T17:43:02.326Z,69.95
2023-01-22T17:45:28.333Z,55.60
2023-01-22T17:47:54.380Z,61.17
2023-01-22T17:50:20.303Z,38.92
2023-01-22T17:52:46.392Z,59.55
2023-01-22T17:55:13.212Z,36.67
2023-01-22T17:57:41.367Z,71.47
2023-01-22T18:00:09.315Z,133.52
2023-01-22T18:02:35.332Z,96.30
2023-01-22T18:05:01.647Z,40.72
2023-01-22T18:07:28.360Z,82.75
2023-01-22T18:09:54.364Z,51.40
2023-01-22T18:12:20.352Z,62.25
2023-01-22T18:14:46.705Z,97.97
2023-01-22T18:17:12.776Z,119.43
2023-01-22T18:19:38.695Z,88.75
2023-01-22T18:22:04.509Z,64.72
2023-01-22T18:24:32.515Z,99.95
2023-01-22T18:26:58.486Z,147.95
2023-01-22T18:29:25.941Z,41.28
2023-01-22T18:31:52.034Z,61.63
2023-01-22T18:34:19.570Z,52.90
2023-01-22T18:36:45.542Z,49.38
2023-01-22T18:39:15.479Z,72.20
2023-01-22T18:41:43.110Z,86.25
2023-01-22T18:44:10.377Z,65.18
2023-01-22T18:46:38.345Z,67.57
2023-01-22T18:49:07.321Z,61.22
2023-01-22T18:51:34.092Z,48.88
2023-01-22T18:54:02.539Z,183.27
2023-01-22T18:56:28.430Z,53.40
2023-01-22T18:58:55.454Z,43.80
2023-01-22T19:01:25.854Z,69.03
2023-01-22T19:03:56.088Z,69.88
2023-01-22T19:06:30.490Z,54.75
2023-01-22T19:09:13.278Z,50.53
2023-01-22T19:11:41.847Z,108.90
2023-01-22T19:14:09.462Z,206.98
2023-01-22T19:16:36.982Z,66.45
2023-01-22T19:19:10.403Z,86.18
2023-01-22T19:21:39.589Z,55.53
2023-01-22T19:24:07.878Z,66.30
2023-01-22T19:26:35.929Z,225.43
2023-01-22T19:29:08.287Z,55.22
2023-01-22T19:31:39.986Z,111.65
2023-01-22T19:34:06.448Z,192.63
2023-01-22T19:36:36.592Z,38.50
2023-01-22T19:39:06.677Z,84.85
2023-01-22T19:41:32.903Z,77.53
2023-01-22T19:44:00.663Z,186.38
2023-01-22T19:46:27.961Z,62.13
2023-01-22T19:48:54.433Z,63.65
2023-01-22T19:51:22.405Z,51.70
2023-01-22T19:53:48.993Z,54.83
2023-01-22T19:56:23.702Z,62.50
2023-01-22T19:58:50.968Z,50.20
2023-01-22T20:01:17.253Z,49.88
2023-01-22T20:03:43.839Z,54.10
2023-01-22T20:06:12.435Z,42.88
2023-01-22T20:08:38.358Z,50.92
2023-01-22T20:11:07.311Z,43.67
2023-01-22T20:13:33.922Z,44.92
2023-01-22T20:16:00.680Z,47.42
2023-01-22T20:18:27.448Z,37.97
2023-01-22T20:21:01.161Z,45.20
2023-01-22T20:23:28.426Z,51.42
2023-01-22T20:25:55.113Z,41.03
2023-01-22T20:28:22.068Z,40.70
2023-01-22T20:30:59.300Z,42.80
2023-01-22T20:33:26.424Z,50.40
2023-01-22T20:36:01.806Z,41.17
2023-01-22T20:38:28.388Z,53.08
2023-01-22T20:40:54.363Z,45.85
2023-01-22T20:43:20.520Z,43.20
2023-01-22T20:46:01.924Z,41.90
2023-01-22T20:48:29.838Z,49.92
2023-01-22T20:50:55.889Z,44.25
2023-01-22T20:53:22.203Z,40.22
2023-01-22T20:56:04.088Z,43.13
2023-01-22T20:58:30.753Z,41.95
2023-01-22T21:01:18.442Z,38.58
2023-01-22T21:03:46.775Z,40.25
2023-01-22T21:06:14.559Z,57.47
2023-01-22T21:08:41.953Z,38.33
2023-01-22T21:11:10.770Z,40.28
2023-01-22T21:13:37.143Z,41.15
2023-01-22T21:16:08.423Z,42.05
2023-01-22T21:18:35.522Z,37.60
2023-01-22T21:21:03.790Z,51.92
2023-01-22T21:23:29.716Z,71.43
2023-01-22T21:25:55.812Z,46.30
2023-01-22T21:28:21.832Z,50.03
2023-01-22T21:30:47.700Z,103.18
2023-01-22T21:33:13.685Z,48.45
2023-01-22T21:35:39.626Z,77.90
2023-01-22T21:38:05.580Z,63.17
2023-01-22T21:40:31.378Z,46.13
2023-01-22T21:43:35.678Z,46.65
2023-01-22T21:46:19.856Z,71.20
2023-01-22T21:48:45.772Z,198.77
2023-01-22T21:51:11.963Z,75.75
2023-01-22T21:53:37.831Z,64.13
2023-01-22T21:56:04.185Z,90.32
2023-01-22T21:58:30.105Z,101.50
2023-01-22T22:01:03.777Z,61.20
2023-01-22T22:03:32.016Z,81.70
2023-01-22T22:06:01.901Z,274.60
2023-01-22T22:08:36.814Z,180.07
2023-01-22T22:11:03.918Z,62.95
2023-01-22T22:13:31.631Z,48.22
2023-01-22T22:16:04.837Z,80.47
2023-01-22T22:18:31.099Z,75.80
2023-01-22T22:21:02.656Z,109.53
2023-01-22T22:23:29.840Z,47.33
2023-01-22T22:25:56.415Z,73.57
2023-01-22T22:28:23.101Z,61.33
2023-01-22T22:30:49.035Z,57.78
2023-01-22T22:33:15.217Z,41.35
2023-01-22T22:35:45.459Z,56.00
2023-01-22T22:38:11.979Z,41.80
2023-01-22T22:40:37.932Z,38.22
2023-01-22T22:43:03.935Z,42.17
2023-01-22T22:45:29.947Z,40.53
2023-01-22T22:47:57.459Z,43.35
2023-01-22T22:50:23.343Z,38.75
2023-01-22T22:52:49.250Z,40.63
2023-01-22T22:55:15.162Z,37.47
2023-01-22T22:57:40.968Z,35.33
2023-01-22T23:00:11.231Z,36.92
2023-01-22T23:02:37.308Z,35.30
2023-01-22T23:05:03.224Z,34.90
2023-01-22T23:07:29.054Z,32.17
2023-01-22T23:09:55.749Z,36.08
2023-01-22T23:12:21.587Z,31.67
2023-01-22T23:14:47.424Z,32.97
2023-01-22T23:17:13.334Z,37.53
2023-01-22T23:19:39.549Z,33.03
2023-01-22T23:22:05.319Z,36.22
2023-01-22T23:24:31.314Z,32.15
2023-01-22T23:26:57.198Z,31.55
2023-01-22T23:29:23.942Z,33.30
2023-01-22T23:31:50.441Z,31.40
2023-01-22T23:34:18.727Z,32.97
2023-01-22T23:36:46.116Z,34.58
2023-01-22T23:39:14.981Z,33.13
2023-01-22T23:41:41.600Z,35.13
2023-01-22T23:44:07.600Z,33.25
2023-01-22T23:46:35.667Z,33.97
2023-01-22T23:49:03.532Z,31.02
2023-01-22T23:51:29.933Z,35.33
2023-01-22T23:53:56.337Z,37.08
2023-01-22T23:56:24.855Z,31.38
2023-01-22T23:58:54.621Z,32.25
